createdAt,value
2023-05-02T00:00:04.503Z,4.50
2023-05-02T00:01:07.865Z,5.00
2023-05-02T00:02:19.095Z,4.00
2023-05-02T00:03:23.189Z,2.25
2023-05-02T00:04:27.172Z,2.50
2023-05-02T00:05:31.108Z,3.50
2023-05-02T00:06:35.348Z,4.00
2023-05-02T00:07:39.421Z,4.50
2023-05-02T00:08:43.428Z,4.75
2023-05-02T00:09:47.174Z,4.75
2023-05-02T00:10:51.212Z,5.50
2023-05-02T00:11:55.219Z,4.25
2023-05-02T00:12:59.318Z,5.25
2023-05-02T00:14:03.243Z,4.50
2023-05-02T00:16:10.918Z,4.25
2023-05-02T00:17:14.890Z,4.75
2023-05-02T00:18:18.767Z,5.00
2023-05-02T00:19:22.915Z,5.00
2023-05-02T00:20:27.026Z,4.50
2023-05-02T00:21:31.215Z,4.25
2023-05-02T00:22:35.328Z,6.00
2023-05-02T00:23:39.428Z,5.75
2023-05-02T00:24:43.561Z,4.50
2023-05-02T00:25:47.642Z,4.75
2023-05-02T00:26:51.852Z,3.00
2023-05-02T00:27:56.048Z,3.00
2023-05-02T00:29:00.358Z,4.00
2023-05-02T00:30:04.570Z,5.50
2023-05-02T00:31:08.704Z,6.00
2023-05-02T00:32:12.877Z,4.50
2023-05-02T00:33:16.697Z,3.50
2023-05-02T00:34:20.877Z,4.75
2023-05-02T00:35:25.080Z,7.00
2023-05-02T00:36:29.075Z,6.25
2023-05-02T00:37:33.290Z,4.50
2023-05-02T00:38:37.392Z,4.00
2023-05-02T00:39:41.700Z,4.50
2023-05-02T00:40:46.037Z,6.00
2023-05-02T00:41:50.116Z,5.00
2023-05-02T00:42:54.330Z,4.00
2023-05-02T00:43:58.417Z,4.25
2023-05-02T00:45:02.503Z,4.25
2023-05-02T00:46:06.552Z,4.75
2023-05-02T00:47:10.610Z,4.50
2023-05-02T00:48:14.939Z,4.25
2023-05-02T00:49:19.106Z,5.25
2023-05-02T00:50:23.157Z,5.25
2023-05-02T00:51:27.257Z,4.00
2023-05-02T00:52:31.041Z,4.00
2023-05-02T00:53:34.946Z,4.00
2023-05-02T00:54:38.941Z,4.25
2023-05-02T00:55:42.844Z,5.75
2023-05-02T00:56:49.508Z,8.00
2023-05-02T00:57:53.511Z,5.75
2023-05-02T00:58:57.227Z,4.00
2023-05-02T01:00:01.243Z,5.00
2023-05-02T01:01:08.944Z,5.00
2023-05-02T01:02:12.975Z,4.50
2023-05-02T01:03:17.040Z,5.00
2023-05-02T01:04:21.080Z,5.00
2023-05-02T01:05:25.097Z,5.50
2023-05-02T01:06:29.244Z,4.50
2023-05-02T01:07:33.407Z,4.25
2023-05-02T01:08:37.640Z,3.50
2023-05-02T01:09:41.624Z,3.25
2023-05-02T01:10:45.510Z,4.00
2023-05-02T01:11:49.510Z,4.50
2023-05-02T01:12:53.544Z,4.00
2023-05-02T01:13:57.311Z,4.50
2023-05-02T01:15:01.215Z,4.50
2023-05-02T01:16:05.358Z,5.75
2023-05-02T01:17:09.498Z,4.50
2023-05-02T01:18:13.734Z,4.00
2023-05-02T01:19:17.826Z,4.00
2023-05-02T01:20:21.791Z,4.50
2023-05-02T01:21:26.132Z,4.00
2023-05-02T01:22:30.103Z,6.00
2023-05-02T01:23:34.137Z,4.75
2023-05-02T01:24:38.170Z,4.00
2023-05-02T01:25:41.968Z,4.75
2023-05-02T01:26:45.831Z,3.75
2023-05-02T01:27:49.642Z,4.50
2023-05-02T01:28:53.636Z,3.00
2023-05-02T01:29:57.876Z,5.00
2023-05-02T01:31:02.270Z,5.00
2023-05-02T01:32:06.403Z,4.50
2023-05-02T01:33:10.281Z,5.75
2023-05-02T01:34:14.245Z,6.00
2023-05-02T01:35:18.129Z,5.50
2023-05-02T01:36:22.024Z,4.75
2023-05-02T01:37:25.821Z,3.50
2023-05-02T01:38:29.739Z,4.25
2023-05-02T01:39:33.745Z,5.00
2023-05-02T01:40:37.643Z,4.00
2023-05-02T01:41:41.438Z,4.25
2023-05-02T01:42:45.441Z,4.00
2023-05-02T01:43:49.439Z,5.00
2023-05-02T01:44:53.342Z,5.50
2023-05-02T01:46:00.639Z,4.50
2023-05-02T01:47:04.859Z,4.50
2023-05-02T01:48:08.732Z,3.50
2023-05-02T01:49:12.638Z,4.50
2023-05-02T01:50:16.521Z,5.00
2023-05-02T01:51:20.519Z,3.50
2023-05-02T01:52:24.331Z,3.75
2023-05-02T01:53:28.298Z,5.00
2023-05-02T01:54:32.318Z,4.00
2023-05-02T01:55:36.218Z,3.00
2023-05-02T01:56:40.132Z,3.50
2023-05-02T01:57:43.922Z,4.00
2023-05-02T01:58:47.812Z,3.50
2023-05-02T01:59:51.713Z,4.00
2023-05-02T02:00:55.677Z,5.00
2023-05-02T02:01:59.907Z,6.00
2023-05-02T02:03:04.067Z,5.00
2023-05-02T02:04:08.308Z,3.00
2023-05-02T02:05:12.433Z,4.50
2023-05-02T02:06:16.755Z,4.50
2023-05-02T02:07:20.851Z,3.50
2023-05-02T02:08:24.949Z,4.50
2023-05-02T02:09:29.053Z,4.00
2023-05-02T02:10:33.361Z,4.50
2023-05-02T02:11:37.373Z,4.50
2023-05-02T02:12:41.462Z,5.00
2023-05-02T02:13:45.683Z,4.00
2023-05-02T02:14:49.792Z,3.00
2023-05-02T02:15:53.892Z,4.00
2023-05-02T02:16:58.019Z,5.00
2023-05-02T02:18:02.341Z,4.50
2023-05-02T02:19:06.628Z,4.00
2023-05-02T02:20:11.097Z,3.00
2023-05-02T02:21:15.317Z,3.50
2023-05-02T02:22:19.329Z,5.25
2023-05-02T02:23:23.398Z,5.00
2023-05-02T02:24:27.423Z,6.00
2023-05-02T02:25:33.256Z,6.00
2023-05-02T02:26:37.172Z,4.75
2023-05-02T02:27:40.980Z,4.00
2023-05-02T02:28:44.779Z,3.75
2023-05-02T02:29:48.580Z,3.50
2023-05-02T02:30:52.685Z,3.75
2023-05-02T02:31:56.668Z,3.25
2023-05-02T02:33:00.682Z,3.00
2023-05-02T02:34:06.236Z,3.50
2023-05-02T02:35:10.105Z,3.50
2023-05-02T02:36:14.096Z,4.50
2023-05-02T02:37:17.879Z,5.00
2023-05-02T02:38:21.797Z,5.25
2023-05-02T02:39:25.588Z,4.50
2023-05-02T02:40:29.488Z,4.25
2023-05-02T02:41:33.387Z,4.50
2023-05-02T02:42:37.286Z,6.00
2023-05-02T02:43:41.185Z,4.25
2023-05-02T02:44:44.982Z,3.50
2023-05-02T02:45:49.027Z,5.50
2023-05-02T02:46:52.881Z,4.75
2023-05-02T02:47:56.682Z,3.00
2023-05-02T02:49:00.670Z,4.00
2023-05-02T02:50:04.566Z,3.00
2023-05-02T02:51:08.376Z,2.00
2023-05-02T02:52:12.288Z,3.50
2023-05-02T02:53:16.158Z,4.00
2023-05-02T02:54:26.448Z,3.50
2023-05-02T02:55:25.003Z,3.25
2023-05-02T02:56:28.898Z,3.75
2023-05-02T02:57:32.774Z,3.00
2023-05-02T02:58:36.815Z,4.25
2023-05-02T02:59:40.790Z,3.50
2023-05-02T03:00:44.680Z,4.25
2023-05-02T03:01:48.729Z,3.75
2023-05-02T03:02:52.891Z,4.25
2023-05-02T03:03:56.787Z,3.00
2023-05-02T03:05:01.119Z,3.00
2023-05-02T03:06:05.355Z,4.00
2023-05-02T03:07:09.409Z,3.00
2023-05-02T03:08:13.414Z,3.00
2023-05-02T03:09:17.513Z,3.50
2023-05-02T03:10:21.641Z,4.00
2023-05-02T03:11:26.720Z,2.00
2023-05-02T03:12:30.946Z,2.00
2023-05-02T03:13:35.363Z,2.25
2023-05-02T03:14:39.346Z,2.25
2023-05-02T03:15:43.921Z,3.00
2023-05-02T03:16:53.832Z,3.50
2023-05-02T03:17:57.968Z,2.50
2023-05-02T03:19:02.131Z,3.50
2023-05-02T03:20:06.032Z,2.50
2023-05-02T03:21:10.131Z,2.50
2023-05-02T03:22:14.328Z,2.50
2023-05-02T03:23:18.460Z,2.50
2023-05-02T03:24:22.648Z,3.00
2023-05-02T03:25:26.552Z,3.00
2023-05-02T03:26:30.642Z,4.00
2023-05-02T03:27:34.847Z,3.50
2023-05-02T03:28:38.851Z,3.00
2023-05-02T03:29:43.059Z,2.50
2023-05-02T03:30:47.178Z,3.50
2023-05-02T03:31:51.203Z,3.00
2023-05-02T03:32:54.955Z,3.00
2023-05-02T03:33:58.677Z,3.00
2023-05-02T03:35:02.451Z,2.75
2023-05-02T03:36:06.454Z,1.50
2023-05-02T03:37:10.447Z,1.50
2023-05-02T03:38:14.251Z,3.00
2023-05-02T03:39:18.148Z,2.00
2023-05-02T03:40:22.103Z,2.00
2023-05-02T03:41:26.045Z,2.00
2023-05-02T03:42:29.955Z,2.00
2023-05-02T03:43:33.836Z,3.00
2023-05-02T03:44:37.735Z,4.25
2023-05-02T03:45:41.534Z,3.00
2023-05-02T03:46:45.888Z,2.50
2023-05-02T03:47:49.926Z,2.00
2023-05-02T03:48:54.154Z,3.00
2023-05-02T03:49:58.628Z,2.75
2023-05-02T03:51:02.773Z,5.00
2023-05-02T03:52:06.874Z,5.25
2023-05-02T03:53:10.876Z,3.25
2023-05-02T03:54:14.769Z,2.50
2023-05-02T03:55:18.776Z,2.00
2023-05-02T03:56:22.584Z,2.00
2023-05-02T03:57:26.473Z,2.00
2023-05-02T03:58:30.232Z,4.00
2023-05-02T03:59:33.966Z,5.00
2023-05-02T04:00:38.070Z,4.00
2023-05-02T04:01:41.812Z,2.50
2023-05-02T04:02:45.911Z,2.75
2023-05-02T04:03:49.922Z,3.25
2023-05-02T04:04:53.764Z,2.50
2023-05-02T04:05:57.662Z,2.75
2023-05-02T04:07:01.466Z,3.00
2023-05-02T04:08:05.371Z,2.75
2023-05-02T04:09:09.162Z,2.00
2023-05-02T04:10:13.252Z,2.50
2023-05-02T04:11:17.056Z,2.75
2023-05-02T04:12:21.156Z,1.75
2023-05-02T04:13:25.254Z,2.00
2023-05-02T04:14:29.164Z,2.50
2023-05-02T04:15:33.151Z,2.75
2023-05-02T04:16:37.221Z,4.00
2023-05-02T04:17:41.084Z,2.00
2023-05-02T04:18:45.059Z,2.00
2023-05-02T04:19:48.863Z,2.50
2023-05-02T04:20:52.955Z,3.00
2023-05-02T04:21:56.973Z,3.50
2023-05-02T04:23:00.858Z,2.75
2023-05-02T04:24:04.827Z,4.00
2023-05-02T04:25:09.185Z,3.50
2023-05-02T04:26:13.379Z,4.50
2023-05-02T04:27:17.475Z,4.00
2023-05-02T04:28:21.815Z,2.50
2023-05-02T04:29:25.955Z,2.50
2023-05-02T04:30:29.988Z,2.75
2023-05-02T04:31:34.071Z,3.00
2023-05-02T04:32:38.335Z,2.00
2023-05-02T04:33:42.265Z,1.50
2023-05-02T04:34:46.506Z,3.00
2023-05-02T04:35:50.402Z,2.50
2023-05-02T04:36:54.302Z,2.50
2023-05-02T04:37:58.526Z,2.50
2023-05-02T04:39:02.300Z,2.75
2023-05-02T04:40:06.233Z,3.00
2023-05-02T04:41:10.118Z,3.00
2023-05-02T04:42:14.127Z,4.25
2023-05-02T04:43:17.899Z,5.50
2023-05-02T04:44:21.906Z,3.00
2023-05-02T04:45:25.808Z,2.25
2023-05-02T04:46:29.722Z,3.00
2023-05-02T04:47:33.655Z,3.00
2023-05-02T04:48:37.643Z,3.00
2023-05-02T04:49:41.511Z,3.00
2023-05-02T04:50:45.513Z,2.25
2023-05-02T04:51:49.190Z,2.75
2023-05-02T04:52:53.098Z,1.00
2023-05-02T04:53:58.325Z,1.50
2023-05-02T04:55:02.336Z,2.00
2023-05-02T04:56:06.528Z,2.50
2023-05-02T04:57:10.438Z,2.50
2023-05-02T04:58:14.539Z,2.25
2023-05-02T04:59:18.626Z,2.00
2023-05-02T05:00:22.667Z,4.00
2023-05-02T05:01:26.688Z,4.50
2023-05-02T05:02:31.045Z,4.00
2023-05-02T05:03:35.646Z,2.50
2023-05-02T05:04:40.183Z,2.00
2023-05-02T05:05:44.410Z,2.00
2023-05-02T05:06:48.681Z,2.00
2023-05-02T05:07:52.902Z,3.00
2023-05-02T05:08:56.992Z,3.00
2023-05-02T05:10:01.322Z,2.50
2023-05-02T05:11:05.615Z,2.00
2023-05-02T05:12:09.819Z,2.00
2023-05-02T05:13:14.139Z,3.50
2023-05-02T05:14:18.344Z,4.75
2023-05-02T05:15:22.445Z,5.00
2023-05-02T05:16:26.497Z,4.00
2023-05-02T05:17:30.663Z,3.50
2023-05-02T05:18:34.758Z,4.00
2023-05-02T05:19:39.068Z,4.00
2023-05-02T05:20:43.016Z,4.00
2023-05-02T05:21:47.346Z,2.75
2023-05-02T05:22:51.670Z,3.50
2023-05-02T05:23:55.783Z,3.50
2023-05-02T05:24:59.982Z,2.50
2023-05-02T05:26:04.096Z,1.75
2023-05-02T05:27:07.883Z,3.00
2023-05-02T05:28:11.882Z,2.50
2023-05-02T05:29:15.776Z,1.25
2023-05-02T05:30:19.699Z,1.50
2023-05-02T05:31:23.797Z,2.00
2023-05-02T05:32:27.791Z,1.75
2023-05-02T05:33:31.898Z,1.00
2023-05-02T05:34:35.597Z,2.50
2023-05-02T05:35:39.474Z,2.50
2023-05-02T05:36:43.392Z,2.50
2023-05-02T05:37:47.477Z,2.25
2023-05-02T05:38:52.077Z,2.75
2023-05-02T05:39:55.992Z,3.50
2023-05-02T05:41:00.001Z,3.00
2023-05-02T05:42:03.870Z,2.50
2023-05-02T05:43:07.693Z,3.00
2023-05-02T05:44:11.831Z,2.75
2023-05-02T05:45:15.830Z,4.00
2023-05-02T05:46:19.805Z,3.50
2023-05-02T05:47:24.109Z,1.50
2023-05-02T05:48:28.402Z,0.75
2023-05-02T05:49:32.431Z,0.50
2023-05-02T05:50:36.306Z,1.75
2023-05-02T05:51:40.209Z,1.00
2023-05-02T05:52:44.109Z,1.50
2023-05-02T05:53:48.140Z,0.75
2023-05-02T05:54:53.339Z,0.50
2023-05-02T05:55:57.369Z,1.00
2023-05-02T05:57:01.457Z,0.25
2023-05-02T05:58:06.624Z,0.00
2023-05-02T05:59:10.670Z,1.00
2023-05-02T06:00:14.781Z,1.75
2023-05-02T06:01:18.965Z,2.00
2023-05-02T06:02:23.199Z,1.25
2023-05-02T06:03:27.673Z,2.00
2023-05-02T06:04:31.725Z,1.00
2023-05-02T06:05:36.740Z,2.00
2023-05-02T06:06:40.815Z,2.00
2023-05-02T06:07:44.839Z,1.75
2023-05-02T06:08:49.099Z,1.50
2023-05-02T06:09:53.145Z,1.00
2023-05-02T06:10:57.163Z,1.00
2023-05-02T06:12:01.391Z,1.00
2023-05-02T06:13:06.091Z,1.00
2023-05-02T06:14:11.498Z,1.00
2023-05-02T06:15:15.838Z,1.00
2023-05-02T06:16:20.184Z,2.00
2023-05-02T06:17:24.166Z,3.00
2023-05-02T06:18:28.140Z,2.33
2023-05-02T06:19:32.126Z,1.00
2023-05-02T06:20:36.230Z,1.50
2023-05-02T06:21:40.402Z,1.50
2023-05-02T06:22:44.540Z,1.00
2023-05-02T06:23:48.651Z,0.50
2023-05-02T06:24:52.651Z,1.00
2023-05-02T06:25:57.069Z,1.50
2023-05-02T06:27:01.374Z,1.75
2023-05-02T06:28:07.567Z,1.50
2023-05-02T06:29:11.613Z,2.00
2023-05-02T06:30:15.687Z,1.00
2023-05-02T06:31:19.681Z,1.00
2023-05-02T06:32:23.643Z,1.50
2023-05-02T06:33:27.528Z,2.00
2023-05-02T06:34:31.416Z,1.50
2023-05-02T06:35:35.396Z,1.25
2023-05-02T06:36:39.214Z,2.00
2023-05-02T06:37:43.025Z,1.00
2023-05-02T06:38:47.113Z,1.50
2023-05-02T06:39:51.005Z,2.00
2023-05-02T06:40:55.116Z,1.00
2023-05-02T06:41:59.016Z,1.50
2023-05-02T06:43:02.919Z,2.25
2023-05-02T06:44:06.888Z,2.00
2023-05-02T06:45:10.805Z,1.25
2023-05-02T06:46:14.865Z,1.75
2023-05-02T06:47:18.656Z,1.50
2023-05-02T06:48:22.511Z,1.00
2023-05-02T06:49:26.609Z,0.50
2023-05-02T06:50:30.504Z,1.50
2023-05-02T06:51:34.380Z,2.75
2023-05-02T06:52:38.211Z,2.50
2023-05-02T06:53:42.098Z,1.50
2023-05-02T06:54:45.805Z,2.50
2023-05-02T06:55:49.607Z,2.50
2023-05-02T06:56:53.372Z,2.00
2023-05-02T06:57:57.386Z,1.00
2023-05-02T06:59:01.287Z,1.75
2023-05-02T07:00:05.078Z,2.50
2023-05-02T07:01:09.195Z,3.00
2023-05-02T07:02:13.200Z,2.50
2023-05-02T07:03:16.996Z,1.00
2023-05-02T07:04:20.955Z,1.00
2023-05-02T07:05:25.090Z,0.00
2023-05-02T07:06:29.264Z,0.50
2023-05-02T07:07:33.295Z,1.50
2023-05-02T07:08:37.796Z,2.00
2023-05-02T07:09:42.034Z,1.50
2023-05-02T07:10:45.914Z,2.50
2023-05-02T07:11:50.119Z,0.75
2023-05-02T07:12:54.334Z,0.50
2023-05-02T07:13:58.532Z,1.00
2023-05-02T07:15:02.519Z,2.00
2023-05-02T07:16:06.557Z,1.00
2023-05-02T07:17:10.929Z,1.25
2023-05-02T07:18:15.087Z,1.75
2023-05-02T07:19:19.151Z,2.00
2023-05-02T07:20:23.253Z,2.50
2023-05-02T07:21:27.474Z,2.00
2023-05-02T07:22:31.459Z,1.50
2023-05-02T07:23:35.363Z,2.00
2023-05-02T07:24:39.481Z,1.50
2023-05-02T07:25:44.187Z,2.00
2023-05-02T07:26:48.279Z,1.25
2023-05-02T07:27:52.386Z,2.00
2023-05-02T07:28:56.395Z,1.50
2023-05-02T07:30:00.588Z,3.00
2023-05-02T07:31:05.217Z,2.50
2023-05-02T07:32:09.138Z,1.75
2023-05-02T07:33:13.160Z,1.50
2023-05-02T07:34:16.926Z,2.50
2023-05-02T07:35:20.908Z,3.00
2023-05-02T07:36:25.008Z,3.00
2023-05-02T07:37:28.909Z,2.50
2023-05-02T07:38:33.420Z,1.40
2023-05-02T07:39:37.329Z,1.25
2023-05-02T07:40:41.445Z,2.50
2023-05-02T07:41:45.333Z,2.00
2023-05-02T07:42:49.249Z,1.50
2023-05-02T07:43:53.344Z,2.00
2023-05-02T07:44:57.460Z,2.00
2023-05-02T07:46:01.625Z,2.50
2023-05-02T07:47:05.551Z,1.00
2023-05-02T07:48:09.488Z,1.50
2023-05-02T07:49:13.751Z,2.00
2023-05-02T07:50:17.741Z,2.00
2023-05-02T07:51:21.589Z,1.50
2023-05-02T07:52:25.539Z,2.00
2023-05-02T07:53:29.655Z,1.50
2023-05-02T07:54:33.540Z,2.00
2023-05-02T07:55:37.548Z,2.25
2023-05-02T07:56:41.851Z,2.50
2023-05-02T07:57:45.981Z,2.00
2023-05-02T07:58:50.159Z,3.00
2023-05-02T07:59:54.581Z,2.50
2023-05-02T08:00:59.001Z,1.50
2023-05-02T08:02:03.292Z,1.50
2023-05-02T08:03:07.363Z,2.00
2023-05-02T08:04:11.813Z,2.00
2023-05-02T08:05:16.116Z,2.00
2023-05-02T08:06:20.610Z,2.00
2023-05-02T08:07:24.879Z,1.75
2023-05-02T08:08:30.013Z,2.50
2023-05-02T08:09:34.466Z,2.75
2023-05-02T08:10:38.591Z,2.75
2023-05-02T08:11:42.708Z,2.50
2023-05-02T08:12:47.004Z,2.00
2023-05-02T08:13:51.130Z,2.50
2023-05-02T08:14:55.912Z,2.75
2023-05-02T08:16:00.591Z,2.75
2023-05-02T08:17:04.851Z,2.75
2023-05-02T08:18:10.511Z,3.00
2023-05-02T08:19:14.820Z,3.00
2023-05-02T08:20:18.891Z,1.75
2023-05-02T08:21:22.931Z,2.50
2023-05-02T08:22:26.997Z,2.25
2023-05-02T08:23:31.314Z,3.00
2023-05-02T08:24:35.318Z,2.00
2023-05-02T08:25:40.027Z,2.75
2023-05-02T08:26:43.924Z,3.00
2023-05-02T08:27:47.901Z,2.75
2023-05-02T08:28:51.848Z,3.25
2023-05-02T08:29:57.331Z,4.00
2023-05-02T08:31:00.753Z,3.00
2023-05-02T08:32:04.820Z,3.00
2023-05-02T08:33:08.668Z,3.50
2023-05-02T08:34:12.546Z,3.00
2023-05-02T08:35:16.551Z,4.00
2023-05-02T08:36:20.468Z,3.75
2023-05-02T08:37:24.552Z,4.50
2023-05-02T08:38:28.341Z,3.25
2023-05-02T08:39:32.237Z,3.00
2023-05-02T08:41:44.644Z,2.00
2023-05-02T08:42:48.542Z,1.75
2023-05-02T08:43:52.750Z,2.50
2023-05-02T08:44:57.091Z,3.00
2023-05-02T08:46:01.069Z,2.50
2023-05-02T08:47:05.464Z,3.00
2023-05-02T08:48:09.604Z,3.50
2023-05-02T08:49:13.550Z,3.00
2023-05-02T08:50:17.682Z,2.50
2023-05-02T08:51:21.870Z,2.00
2023-05-02T08:52:25.894Z,2.75
2023-05-02T08:53:30.199Z,3.00
2023-05-02T08:54:34.498Z,3.00
2023-05-02T08:55:38.711Z,3.00
2023-05-02T08:56:43.056Z,2.50
2023-05-02T08:57:47.215Z,3.25
2023-05-02T08:58:51.022Z,3.00
2023-05-02T08:59:55.116Z,2.50
2023-05-02T09:00:59.163Z,2.75
2023-05-02T09:02:03.431Z,2.75
2023-05-02T09:03:07.473Z,3.50
2023-05-02T09:04:11.553Z,3.00
2023-05-02T09:05:15.442Z,3.50
2023-05-02T09:06:19.466Z,2.50
2023-05-02T09:07:23.571Z,2.00
2023-05-02T09:08:27.838Z,2.00
2023-05-02T09:09:31.954Z,2.00
2023-05-02T09:10:36.251Z,2.00
2023-05-02T09:11:42.293Z,2.25
2023-05-02T09:12:46.219Z,2.00
2023-05-02T09:13:50.303Z,1.75
2023-05-02T09:14:54.416Z,3.00
2023-05-02T09:15:58.718Z,3.00
2023-05-02T09:17:02.873Z,3.00
2023-05-02T09:18:07.169Z,1.50
2023-05-02T09:19:11.330Z,2.00
2023-05-02T09:20:15.348Z,3.00
2023-05-02T09:21:20.925Z,3.00
2023-05-02T09:22:28.064Z,2.50
2023-05-02T09:23:32.569Z,3.00
2023-05-02T09:24:36.568Z,2.00
2023-05-02T09:25:40.446Z,1.50
2023-05-02T09:26:44.667Z,1.75
2023-05-02T09:27:48.774Z,2.00
2023-05-02T09:28:52.704Z,2.50
2023-05-02T09:29:56.362Z,2.00
2023-05-02T09:31:00.397Z,1.75
2023-05-02T09:32:06.055Z,2.00
2023-05-02T09:33:09.573Z,2.00
2023-05-02T09:34:13.351Z,2.00
2023-05-02T09:35:17.097Z,1.50
2023-05-02T09:36:21.306Z,1.75
2023-05-02T09:37:30.557Z,2.50
2023-05-02T09:38:34.615Z,3.50
2023-05-02T09:39:38.431Z,2.00
2023-05-02T09:40:42.925Z,2.50
2023-05-02T09:41:47.005Z,2.50
2023-05-02T09:42:51.135Z,2.50
2023-05-02T09:43:55.237Z,2.50
2023-05-02T09:44:59.398Z,3.00
2023-05-02T09:46:03.927Z,3.50
2023-05-02T09:47:11.256Z,2.75
2023-05-02T09:48:15.049Z,3.00
2023-05-02T09:49:19.656Z,1.75
2023-05-02T09:50:23.361Z,2.50
2023-05-02T09:51:27.138Z,1.75
2023-05-02T09:52:31.188Z,3.00
2023-05-02T09:53:35.051Z,4.00
2023-05-02T09:54:39.136Z,3.75
2023-05-02T09:55:44.054Z,4.00
2023-05-02T09:56:50.170Z,4.50
2023-05-02T09:57:53.910Z,3.75
2023-05-02T09:58:57.711Z,2.50
2023-05-02T10:00:01.523Z,3.00
2023-05-02T10:01:05.742Z,3.25
2023-05-02T10:02:09.650Z,3.00
2023-05-02T10:03:13.486Z,3.00
2023-05-02T10:04:17.552Z,2.50
2023-05-02T10:05:21.524Z,1.50
2023-05-02T10:06:25.593Z,2.00
2023-05-02T10:07:29.376Z,2.50
2023-05-02T10:08:33.189Z,3.00
2023-05-02T10:09:36.941Z,3.25
2023-05-02T10:10:40.893Z,3.50
2023-05-02T10:11:44.677Z,3.25
2023-05-02T10:12:48.504Z,3.25
2023-05-02T10:13:52.382Z,3.50
2023-05-02T10:14:56.401Z,2.00
2023-05-02T10:16:00.517Z,3.00
2023-05-02T10:17:04.396Z,2.25
2023-05-02T10:18:08.356Z,1.50
2023-05-02T10:19:12.315Z,2.25
2023-05-02T10:20:16.518Z,3.50
2023-05-02T10:21:20.396Z,3.25
2023-05-02T10:22:24.198Z,2.00
2023-05-02T10:23:28.109Z,4.00
2023-05-02T10:24:32.203Z,3.50
2023-05-02T10:25:36.104Z,2.50
2023-05-02T10:26:42.752Z,3.75
2023-05-02T10:27:46.657Z,3.75
2023-05-02T10:28:50.486Z,2.50
2023-05-02T10:29:54.563Z,5.50
2023-05-02T10:30:58.687Z,4.75
2023-05-02T10:32:02.966Z,3.00
2023-05-02T10:33:06.995Z,2.50
2023-05-02T10:34:10.889Z,3.00
2023-05-02T10:35:19.489Z,3.00
2023-05-02T10:36:23.382Z,3.25
2023-05-02T10:37:27.275Z,2.75
2023-05-02T10:38:31.424Z,3.00
2023-05-02T10:39:36.526Z,2.50
2023-05-02T10:40:40.411Z,3.00
2023-05-02T10:41:45.536Z,2.25
2023-05-02T10:42:49.432Z,3.00
2023-05-02T10:43:53.431Z,2.75
2023-05-02T10:44:57.606Z,3.00
2023-05-02T10:46:02.046Z,3.00
2023-05-02T10:47:06.623Z,4.00
2023-05-02T10:48:13.360Z,3.50
2023-05-02T10:49:19.053Z,4.00
2023-05-02T10:50:23.066Z,4.00
2023-05-02T10:51:27.352Z,3.50
2023-05-02T10:52:32.978Z,2.50
2023-05-02T10:53:37.113Z,3.00
2023-05-02T10:54:43.740Z,3.00
2023-05-02T10:55:47.369Z,2.50
2023-05-02T10:56:51.802Z,3.00
2023-05-02T10:57:55.867Z,3.00
2023-05-02T10:58:59.765Z,2.50
2023-05-02T11:00:03.819Z,3.00
2023-05-02T11:01:09.457Z,3.00
2023-05-02T11:02:13.189Z,2.50
2023-05-02T11:03:17.721Z,3.00
2023-05-02T11:04:22.310Z,2.75
2023-05-02T11:05:26.549Z,2.50
2023-05-02T11:06:30.887Z,4.00
2023-05-02T11:07:35.267Z,4.00
2023-05-02T11:08:40.275Z,3.00
2023-05-02T11:09:44.908Z,3.00
2023-05-02T11:10:49.231Z,3.50
2023-05-02T11:11:53.957Z,7.00
2023-05-02T11:12:58.253Z,6.50
2023-05-02T11:14:02.428Z,3.50
2023-05-02T11:15:07.275Z,3.50
2023-05-02T11:16:11.860Z,4.50
2023-05-02T11:17:16.117Z,6.00
2023-05-02T11:18:20.200Z,8.00
2023-05-02T11:19:24.509Z,6.00
2023-05-02T11:20:32.128Z,5.00
2023-05-02T11:21:36.314Z,5.75
2023-05-02T11:22:40.812Z,5.25
2023-05-02T11:23:44.815Z,3.00
2023-05-02T11:24:49.454Z,4.00
2023-05-02T11:25:53.583Z,5.50
2023-05-02T11:26:57.548Z,4.75
2023-05-02T11:28:02.160Z,4.50
2023-05-02T11:29:06.361Z,4.50
2023-05-02T11:30:12.846Z,7.00
2023-05-02T11:31:18.776Z,4.50
2023-05-02T11:32:23.029Z,3.25
2023-05-02T11:33:27.182Z,3.50
2023-05-02T11:34:30.969Z,3.00
2023-05-02T11:35:36.554Z,3.00
2023-05-02T11:36:40.613Z,2.00
2023-05-02T11:37:44.703Z,2.50
2023-05-02T11:38:48.613Z,2.75
2023-05-02T11:39:52.520Z,1.50
2023-05-02T11:40:56.514Z,2.00
2023-05-02T11:42:00.321Z,2.25
2023-05-02T11:43:04.514Z,2.50
2023-05-02T11:44:08.837Z,2.00
2023-05-02T11:45:12.933Z,2.00
2023-05-02T11:46:16.772Z,1.50
2023-05-02T11:47:20.636Z,1.50
2023-05-02T11:48:24.521Z,2.00
2023-05-02T11:49:28.434Z,2.50
2023-05-02T11:50:36.261Z,2.00
2023-05-02T11:51:40.917Z,2.50
2023-05-02T11:52:44.732Z,3.50
2023-05-02T11:53:48.834Z,3.50
2023-05-02T11:54:53.037Z,3.00
2023-05-02T11:55:56.852Z,1.50
2023-05-02T11:57:00.844Z,3.00
2023-05-02T11:58:04.845Z,3.75
2023-05-02T11:59:08.846Z,4.00
2023-05-02T12:00:12.787Z,3.75
2023-05-02T12:01:16.644Z,3.50
2023-05-02T12:02:20.693Z,2.50
2023-05-02T12:03:24.885Z,3.00
2023-05-02T12:04:35.454Z,3.50
2023-05-02T12:05:39.685Z,3.00
2023-05-02T12:06:44.884Z,3.00
2023-05-02T12:07:49.440Z,4.00
2023-05-02T12:08:53.861Z,3.50
2023-05-02T12:09:57.953Z,3.50
2023-05-02T12:11:01.967Z,4.25
2023-05-02T12:12:06.621Z,3.75
2023-05-02T12:13:11.904Z,4.00
2023-05-02T12:14:16.320Z,3.75
2023-05-02T12:15:21.555Z,3.75
2023-05-02T12:16:25.921Z,4.00
2023-05-02T12:17:36.309Z,4.25
2023-05-02T12:18:41.156Z,4.00
2023-05-02T12:19:45.340Z,4.50
2023-05-02T12:22:10.954Z,4.00
2023-05-02T12:23:17.640Z,4.00
2023-05-02T12:24:21.536Z,5.00
2023-05-02T12:25:26.339Z,4.00
2023-05-02T12:26:30.444Z,4.25
2023-05-02T12:27:34.235Z,4.00
2023-05-02T12:28:37.951Z,4.25
2023-05-02T12:29:41.831Z,4.50
2023-05-02T12:30:45.629Z,4.75
2023-05-02T12:31:49.446Z,6.00
2023-05-02T12:32:53.383Z,5.00
2023-05-02T12:33:57.497Z,6.00
2023-05-02T12:35:02.260Z,5.00
2023-05-02T12:36:06.455Z,3.00
2023-05-02T12:37:10.254Z,4.50
2023-05-02T12:38:15.344Z,5.00
2023-05-02T12:39:19.278Z,5.50
2023-05-02T12:40:25.810Z,4.50
2023-05-02T12:41:30.234Z,4.00
2023-05-02T12:42:34.515Z,4.00
2023-05-02T12:43:39.063Z,4.50
2023-05-02T12:44:43.204Z,5.50
2023-05-02T12:45:47.379Z,6.00
2023-05-02T12:46:58.089Z,5.00
2023-05-02T12:48:02.416Z,4.50
2023-05-02T12:49:08.521Z,3.75
2023-05-02T12:50:12.519Z,4.25
2023-05-02T12:51:16.592Z,3.75
2023-05-02T12:52:20.721Z,4.00
2023-05-02T12:53:24.705Z,5.00
2023-05-02T12:54:28.709Z,5.25
2023-05-02T12:55:32.715Z,5.50
2023-05-02T12:56:37.012Z,4.00
2023-05-02T12:57:41.217Z,3.00
2023-05-02T12:58:45.311Z,3.50
2023-05-02T12:59:49.416Z,5.00
2023-05-02T13:00:54.069Z,4.25
2023-05-02T13:01:58.149Z,3.75
2023-05-02T13:03:02.369Z,4.00
2023-05-02T13:04:06.739Z,4.50
2023-05-02T13:05:13.160Z,4.25
2023-05-02T13:06:17.586Z,5.00
2023-05-02T13:07:21.833Z,4.50
2023-05-02T13:08:26.249Z,3.50
2023-05-02T13:09:31.160Z,4.25
2023-05-02T13:10:35.284Z,4.00
2023-05-02T13:13:00.712Z,3.00
2023-05-02T13:14:04.793Z,3.50
2023-05-02T13:15:10.819Z,3.00
2023-05-02T13:16:14.630Z,3.00
2023-05-02T13:17:18.688Z,4.50
2023-05-02T13:18:22.656Z,4.50
2023-05-02T13:19:26.846Z,3.00
2023-05-02T13:20:30.629Z,4.50
2023-05-02T13:21:38.048Z,5.25
2023-05-02T13:22:42.210Z,4.00
2023-05-02T13:23:46.233Z,3.75
2023-05-02T13:24:50.253Z,4.50
2023-05-02T13:25:54.331Z,5.00
2023-05-02T13:26:59.684Z,2.50
2023-05-02T13:28:03.548Z,2.50
2023-05-02T13:29:07.548Z,4.00
2023-05-02T13:30:11.982Z,4.00
2023-05-02T13:31:16.320Z,3.50
2023-05-02T13:32:20.435Z,2.00
2023-05-02T13:33:24.635Z,3.25
2023-05-02T13:34:28.691Z,2.50
2023-05-02T13:35:34.692Z,1.50
2023-05-02T13:36:38.035Z,2.00
2023-05-02T13:37:41.931Z,1.75
2023-05-02T13:38:45.927Z,2.50
2023-05-02T13:39:49.593Z,3.50
2023-05-02T13:40:53.578Z,1.00
2023-05-02T13:41:57.533Z,1.75
2023-05-02T13:43:01.312Z,1.50
2023-05-02T13:44:05.104Z,2.00
2023-05-02T13:45:09.104Z,1.75
2023-05-02T13:46:12.810Z,1.00
2023-05-02T13:47:16.734Z,1.00
2023-05-02T13:48:20.510Z,1.00
2023-05-02T13:49:24.612Z,1.25
2023-05-02T13:50:28.402Z,2.00
2023-05-02T13:51:32.292Z,1.50
2023-05-02T13:52:36.194Z,2.00
2023-05-02T13:53:40.418Z,2.00
2023-05-02T13:54:44.193Z,2.00
2023-05-02T13:55:47.993Z,0.25
2023-05-02T13:56:51.785Z,2.00
2023-05-02T13:57:55.793Z,1.75
2023-05-02T13:58:59.681Z,1.50
2023-05-02T14:00:03.856Z,2.50
2023-05-02T14:01:08.257Z,2.50
2023-05-02T14:02:12.204Z,2.25
2023-05-02T14:03:16.145Z,2.00
2023-05-02T14:04:20.945Z,1.50
2023-05-02T14:05:24.930Z,1.50
2023-05-02T14:06:28.754Z,0.75
2023-05-02T14:07:32.537Z,1.50
2023-05-02T14:08:37.954Z,1.00
2023-05-02T14:09:41.860Z,0.00
2023-05-02T14:10:45.653Z,1.00
2023-05-02T14:11:49.380Z,1.50
2023-05-02T14:12:53.250Z,1.00
2023-05-02T14:13:57.300Z,1.00
2023-05-02T14:15:01.081Z,1.50
2023-05-02T14:16:05.075Z,1.00
2023-05-02T14:17:09.040Z,1.50
2023-05-02T14:18:12.778Z,1.50
2023-05-02T14:19:16.515Z,1.50